Time;durP1;ratioP1;P1;durP2;ratioP2;P2;SDS_P1;SDS_P2;PMS_P1;PMS_P2;Temp;Humidity;BMP_temperature;BMP_pressure;BME280_temperature;BME280_humidity;BME280_pressure;Samples;Min_cycle;Max_cycle;Signal;HPM_P1;HPM_P2
2022/08/06 00:02:04;;;;;;;3.60;1.00;;;18.90;47.10;;;;;;4963935;28;20061;-46
2022/08/06 00:04:31;;;;;;;3.45;0.90;;;18.90;47.10;;;;;;4965290;28;20055;-43
2022/08/06 00:06:58;;;;;;;5.72;1.10;;;18.90;47.10;;;;;;4963002;28;20054;-45
2022/08/06 00:09:30;;;;;;;5.70;1.00;;;18.80;47.20;;;;;;4964426;28;20061;-46
2022/08/06 00:11:59;;;;;;;3.70;1.02;;;18.80;47.00;;;;;;4964410;28;20062;-45
2022/08/06 00:14:27;;;;;;;6.22;0.95;;;18.80;47.20;;;;;;4963851;28;20058;-45
2022/08/06 00:16:54;;;;;;;3.35;1.15;;;18.80;47.30;;;;;;4963606;28;20430;-44
2022/08/06 00:19:22;;;;;;;3.33;0.95;;;18.80;47.50;;;;;;4963311;28;20051;-43
2022/08/06 00:21:49;;;;;;;4.60;1.05;;;18.70;47.60;;;;;;4963061;28;20495;-47
2022/08/06 00:24:17;;;;;;;5.20;1.00;;;18.70;47.50;;;;;;4963249;28;20050;-48
2022/08/06 00:26:45;;;;;;;6.18;1.33;;;18.70;47.50;;;;;;4961280;28;20063;-44
2022/08/06 00:29:13;;;;;;;4.65;1.30;;;18.70;47.50;;;;;;4963357;28;20054;-48
2022/08/06 00:31:41;;;;;;;5.03;1.30;;;18.70;47.60;;;;;;4962319;28;20058;-44
2022/08/06 00:34:08;;;;;;;1.23;1.00;;;18.60;47.70;;;;;;4965187;28;20047;-44
2022/08/06 00:36:35;;;;;;;2.03;0.90;;;18.60;48.20;;;;;;4963207;28;20499;-47
2022/08/06 00:39:05;;;;;;;3.65;1.08;;;18.60;47.90;;;;;;4963255;28;20055;-46
2022/08/06 00:41:33;;;;;;;1.73;0.93;;;18.60;47.90;;;;;;4961143;28;20047;-47
2022/08/06 00:44:01;;;;;;;4.68;1.17;;;18.60;47.90;;;;;;4963700;28;20061;-43
2022/08/06 00:46:29;;;;;;;2.97;1.00;;;18.60;48.40;;;;;;4962984;28;20065;-45
2022/08/06 00:48:56;;;;;;;1.48;0.80;;;18.50;47.90;;;;;;4963612;28;20058;-46
2022/08/06 00:51:24;;;;;;;5.05;1.10;;;18.50;47.90;;;;;;4962118;28;20411;-45
2022/08/06 00:53:52;;;;;;;1.83;1.23;;;18.50;48.10;;;;;;4964121;28;20069;-45
2022/08/06 00:56:19;;;;;;;2.80;1.10;;;18.60;48.00;;;;;;4965079;28;20074;-43
2022/08/06 00:58:46;;;;;;;2.13;1.08;;;18.50;47.90;;;;;;4963617;28;20458;-47
2022/08/06 01:01:14;;;;;;;3.20;1.38;;;18.60;48.10;;;;;;4960712;28;20063;-48
2022/08/06 01:03:42;;;;;;;5.18;1.40;;;18.50;48.00;;;;;;4963906;28;20055;-46
2022/08/06 01:06:09;;;;;;;14.13;2.42;;;18.50;48.10;;;;;;4965094;28;20051;-45
2022/08/06 01:08:37;;;;;;;3.40;1.10;;;18.50;48.10;;;;;;4963163;28;20500;-48
2022/08/06 01:11:04;;;;;;;1.45;0.90;;;18.50;48.10;;;;;;4961469;28;20067;-46
2022/08/06 01:13:31;;;;;;;4.00;1.20;;;18.50;48.20;;;;;;4963161;28;20054;-43
2022/08/06 01:16:08;;;;;;;2.55;1.08;;;18.40;48.20;;;;;;4962702;28;20533;-45
2022/08/06 01:18:44;;;;;;;2.50;1.13;;;18.40;48.40;;;;;;4964450;28;20054;-46
2022/08/06 01:21:29;;;;;;;2.70;1.30;;;18.30;48.40;;;;;;4961047;28;20506;-46
2022/08/06 01:24:18;;;;;;;3.90;1.33;;;18.30;48.60;;;;;;4963718;28;20054;-44
2022/08/06 01:26:51;;;;;;;1.77;1.17;;;18.20;48.70;;;;;;4962794;28;20062;-44
2022/08/06 01:29:24;;;;;;;4.15;1.50;;;18.10;48.70;;;;;;4961760;28;20066;-44
2022/08/06 01:31:56;;;;;;;5.47;1.33;;;18.10;48.90;;;;;;4961944;28;20055;-44
2022/08/06 01:34:31;;;;;;;4.45;1.70;;;18.00;49.10;;;;;;4963905;28;20055;-44
2022/08/06 01:37:09;;;;;;;4.45;1.30;;;18.00;49.30;;;;;;4963360;28;20062;-48
2022/08/06 01:39:39;;;;;;;2.80;1.10;;;17.80;49.30;;;;;;4956304;28;20057;-48
2022/08/06 01:42:10;;;;;;;5.63;1.40;;;17.80;49.50;;;;;;4962996;28;20054;-45
2022/08/06 01:44:44;;;;;;;3.20;1.15;;;17.80;49.80;;;;;;4960565;28;20507;-44
2022/08/06 01:47:13;;;;;;;16.10;2.05;;;17.70;49.80;;;;;;4960759;28;20081;-46
2022/08/06 01:49:43;;;;;;;4.90;1.40;;;17.60;50.00;;;;;;4960891;28;20055;-44
2022/08/06 01:52:12;;;;;;;3.22;1.10;;;17.60;50.10;;;;;;4963228;28;20426;-47
2022/08/06 01:54:45;;;;;;;7.30;1.52;;;17.50;50.20;;;;;;4963111;28;20054;-44
2022/08/06 01:57:14;;;;;;;3.53;1.55;;;17.50;50.30;;;;;;4963786;28;20442;-47
2022/08/06 01:59:47;;;;;;;15.18;1.60;;;17.40;50.50;;;;;;4960532;28;20089;-46
2022/08/06 02:02:19;;;;;;;3.50;1.55;;;17.40;50.70;;;;;;4963197;28;20067;-44
2022/08/06 02:04:48;;;;;;;3.83;1.30;;;17.40;50.70;;;;;;4962691;28;20061;-44
2022/08/06 02:07:17;;;;;;;6.53;1.58;;;17.30;50.90;;;;;;4962594;28;20514;-46
2022/08/06 02:09:47;;;;;;;4.15;1.40;;;17.30;50.90;;;;;;4960913;28;20085;-46
2022/08/06 02:12:18;;;;;;;5.35;1.90;;;17.30;51.10;;;;;;4963638;28;20495;-48
2022/08/06 02:14:50;;;;;;;3.35;1.45;;;17.20;51.10;;;;;;4962598;28;20062;-47
2022/08/06 02:17:19;;;;;;;3.75;1.88;;;17.20;51.20;;;;;;4962571;28;20058;-46
2022/08/06 02:19:50;;;;;;;5.22;1.45;;;17.20;51.10;;;;;;4960001;28;20062;-48
2022/08/06 02:22:18;;;;;;;3.65;2.00;;;17.20;51.10;;;;;;4963264;28;20070;-44
2022/08/06 02:24:47;;;;;;;5.32;1.77;;;17.20;51.20;;;;;;4961766;28;20055;-45
2022/08/06 02:27:17;;;;;;;2.53;1.40;;;17.10;51.20;;;;;;4960880;28;20470;-44
2022/08/06 02:29:48;;;;;;;2.50;1.30;;;17.10;51.20;;;;;;4960089;28;20066;-48
2022/08/06 02:32:17;;;;;;;2.42;1.20;;;17.10;51.20;;;;;;4961415;28;20066;-47
2022/08/06 02:34:44;;;;;;;3.90;1.30;;;17.10;51.20;;;;;;4962931;28;20070;-45
2022/08/06 02:37:16;;;;;;;3.75;1.10;;;17.10;51.20;;;;;;4962016;28;20082;-45
2022/08/06 02:39:47;;;;;;;3.00;1.23;;;17.10;51.30;;;;;;4961182;28;20054;-45
2022/08/06 02:42:19;;;;;;;2.97;1.38;;;17.10;51.30;;;;;;4963402;28;20054;-43
2022/08/06 02:44:57;;;;;;;2.33;1.20;;;17.20;51.30;;;;;;4960908;28;20070;-46
2022/08/06 02:47:31;;;;;;;2.10;1.25;;;17.10;51.30;;;;;;4961090;28;20434;-46
2022/08/06 02:50:01;;;;;;;2.90;1.30;;;17.20;51.30;;;;;;4961011;28;20054;-45
2022/08/06 02:52:38;;;;;;;3.72;1.05;;;17.20;51.20;;;;;;4963756;28;20514;-45
2022/08/06 02:55:11;;;;;;;5.07;1.30;;;17.20;51.30;;;;;;4961490;28;20418;-47
2022/08/06 02:57:41;;;;;;;5.37;1.70;;;17.20;51.40;;;;;;4959070;28;20058;-43
2022/08/06 03:00:11;;;;;;;2.78;1.48;;;17.20;51.40;;;;;;4961361;28;20054;-45
2022/08/06 03:02:42;;;;;;;4.18;1.40;;;17.10;51.40;;;;;;4957899;28;20058;-44
2022/08/06 03:05:15;;;;;;;3.10;1.30;;;17.10;52.10;;;;;;4965573;28;20050;-49
2022/08/06 03:07:44;;;;;;;5.35;1.50;;;17.10;51.70;;;;;;4964358;28;20062;-44
2022/08/06 03:10:12;;;;;;;4.88;1.50;;;17.00;51.80;;;;;;4960835;28;20054;-43
2022/08/06 03:12:41;;;;;;;2.65;1.50;;;17.00;52.00;;;;;;4964271;28;20553;-45
2022/08/06 03:15:11;;;;;;;5.72;1.75;;;17.00;52.00;;;;;;4965905;28;20524;-47
2022/08/06 03:17:40;;;;;;;4.53;1.77;;;16.90;52.30;;;;;;4964025;28;20058;-44
2022/08/06 03:20:09;;;;;;;6.25;1.60;;;16.90;52.40;;;;;;4964281;28;20066;-46
2022/08/06 03:22:37;;;;;;;4.57;1.65;;;16.80;52.50;;;;;;4966717;28;20058;-43
2022/08/06 03:25:06;;;;;;;3.53;1.65;;;16.80;52.70;;;;;;4963420;28;20526;-46
2022/08/06 03:27:34;;;;;;;3.55;2.08;;;16.80;52.70;;;;;;4963464;28;20061;-43
2022/08/06 03:30:02;;;;;;;6.85;1.63;;;16.80;52.90;;;;;;4963333;28;20074;-43
2022/08/06 03:32:31;;;;;;;5.93;2.75;;;16.80;52.90;;;;;;4964428;28;20062;-44
2022/08/06 03:35:00;;;;;;;5.78;1.90;;;16.80;53.00;;;;;;4966366;28;20062;-45
2022/08/06 03:37:27;;;;;;;7.15;1.80;;;16.70;52.90;;;;;;4966066;28;20051;-44
2022/08/06 03:39:56;;;;;;;5.85;2.53;;;16.70;52.90;;;;;;4962537;28;20403;-45
2022/08/06 03:42:24;;;;;;;3.97;2.00;;;16.70;53.00;;;;;;4964655;28;20074;-48
2022/08/06 03:44:51;;;;;;;9.18;2.28;;;16.60;53.10;;;;;;4963007;28;20050;-46
2022/08/06 03:47:24;;;;;;;3.67;1.83;;;16.60;53.20;;;;;;4963140;28;20051;-47
2022/08/06 03:49:57;;;;;;;6.07;2.05;;;16.50;53.30;;;;;;4964793;28;20066;-48
2022/08/06 03:52:29;;;;;;;6.05;1.83;;;16.50;53.50;;;;;;4965832;28;20073;-45
2022/08/06 03:55:01;;;;;;;8.27;2.42;;;16.40;53.50;;;;;;4962971;28;20411;-43
2022/08/06 03:57:33;;;;;;;8.32;2.20;;;16.40;53.60;;;;;;4965311;28;20046;-45
2022/08/06 04:00:02;;;;;;;5.80;1.90;;;16.30;53.80;;;;;;4962678;28;20054;-48
2022/08/06 04:02:32;;;;;;;4.93;1.95;;;16.30;53.80;;;;;;4964767;28;20518;-45
2022/08/06 04:05:01;;;;;;;4.18;1.85;;;16.20;53.80;;;;;;4965824;28;20074;-47
2022/08/06 04:07:30;;;;;;;3.95;1.60;;;16.20;54.00;;;;;;4962663;28;20061;-43
2022/08/06 04:09:58;;;;;;;4.15;1.50;;;16.20;54.00;;;;;;4962727;28;20062;-46
2022/08/06 04:12:26;;;;;;;3.40;1.58;;;16.20;54.00;;;;;;4964074;28;20426;-47
2022/08/06 04:14:54;;;;;;;6.45;1.85;;;16.10;54.00;;;;;;4964176;28;20059;-43
2022/08/06 04:17:22;;;;;;;5.68;2.05;;;16.10;54.00;;;;;;4955675;28;20058;-46
2022/08/06 04:19:51;;;;;;;9.20;2.00;;;16.10;54.00;;;;;;4960071;28;20395;-43
2022/08/06 04:22:20;;;;;;;5.63;1.70;;;16.10;54.10;;;;;;4962457;28;20047;-44
2022/08/06 04:24:47;;;;;;;3.72;2.10;;;16.10;54.10;;;;;;4958445;28;20062;-48
2022/08/06 04:27:15;;;;;;;7.88;1.95;;;16.10;54.10;;;;;;4963601;28;20058;-45
2022/08/06 04:29:44;;;;;;;3.85;1.80;;;16.10;54.10;;;;;;4960741;28;20057;-45
2022/08/06 04:32:14;;;;;;;4.50;1.65;;;16.10;54.10;;;;;;4963914;28;20058;-46
2022/08/06 04:34:44;;;;;;;1.63;1.30;;;16.20;54.20;;;;;;4963398;28;20054;-47
2022/08/06 04:37:12;;;;;;;1.55;1.13;;;16.20;54.00;;;;;;4962631;28;20059;-44
2022/08/06 04:39:41;;;;;;;3.55;1.33;;;16.20;54.00;;;;;;4962082;28;20051;-43
2022/08/06 04:42:09;;;;;;;5.38;1.40;;;16.20;54.00;;;;;;4963824;28;20062;-45
2022/08/06 04:44:37;;;;;;;10.93;1.55;;;16.30;53.90;;;;;;4961750;28;20059;-47
2022/08/06 04:47:05;;;;;;;3.88;1.17;;;16.30;53.90;;;;;;4963155;28;20046;-45
2022/08/06 04:49:32;;;;;;;3.40;1.30;;;16.30;53.80;;;;;;4960947;28;20055;-45
2022/08/06 04:51:59;;;;;;;2.10;1.20;;;16.30;53.80;;;;;;4962613;28;20066;-45
2022/08/06 04:54:27;;;;;;;2.45;1.30;;;16.40;53.90;;;;;;4964676;28;20058;-47
2022/08/06 04:56:55;;;;;;;6.22;1.70;;;16.40;54.00;;;;;;4959251;28;20062;-46
2022/08/06 04:59:22;;;;;;;45.45;24.27;;;16.50;54.00;;;;;;4956592;28;20055;-44
2022/08/06 05:01:49;;;;;;;14.73;9.15;;;16.50;54.00;;;;;;4950541;28;20059;-45
2022/08/06 05:04:17;;;;;;;6.15;3.20;;;16.50;54.00;;;;;;4954850;28;20057;-48
2022/08/06 05:06:48;;;;;;;5.85;2.13;;;16.50;54.00;;;;;;4965159;28;20066;-44
2022/08/06 05:09:20;;;;;;;3.65;1.60;;;16.50;54.00;;;;;;4958485;28;20062;-46
2022/08/06 05:11:52;;;;;;;2.80;1.50;;;16.60;54.10;;;;;;4954366;28;20057;-46
2022/08/06 05:14:27;;;;;;;5.90;2.15;;;16.60;54.10;;;;;;4961266;28;20061;-46
2022/08/06 05:16:56;;;;;;;3.78;1.60;;;16.60;54.20;;;;;;4961315;28;20051;-44
2022/08/06 05:19:27;;;;;;;4.38;1.90;;;16.60;54.10;;;;;;4963084;28;20051;-45
2022/08/06 05:21:56;;;;;;;3.70;1.55;;;16.70;54.10;;;;;;4959915;28;20054;-48
2022/08/06 05:24:23;;;;;;;4.60;1.77;;;16.70;54.10;;;;;;4962200;28;20415;-49
2022/08/06 05:26:50;;;;;;;8.13;2.22;;;16.70;54.20;;;;;;4962118;28;20062;-47
2022/08/06 05:29:22;;;;;;;3.88;1.77;;;16.70;54.20;;;;;;4961121;28;20055;-43
2022/08/06 05:31:49;;;;;;;6.97;2.17;;;16.70;54.20;;;;;;4958332;28;22014;-46
2022/08/06 05:34:16;;;;;;;6.25;1.83;;;16.70;54.10;;;;;;4963329;28;21407;-45
2022/08/06 05:36:44;;;;;;;5.07;1.83;;;16.80;54.20;;;;;;4962734;28;20050;-44
2022/08/06 05:39:11;;;;;;;2.90;1.77;;;16.80;54.20;;;;;;4954504;28;20450;-44
2022/08/06 05:41:38;;;;;;;5.82;2.08;;;16.80;54.30;;;;;;4960083;28;20062;-45
2022/08/06 05:44:05;;;;;;;7.63;2.40;;;16.80;54.40;;;;;;4961841;28;20066;-44
2022/08/06 05:46:40;;;;;;;8.60;2.33;;;16.80;54.40;;;;;;4962429;28;20054;-45
2022/08/06 05:49:09;;;;;;;8.45;2.20;;;16.80;54.60;;;;;;4956380;28;20066;-47
2022/08/06 05:51:40;;;;;;;9.35;2.67;;;16.80;54.60;;;;;;4958138;28;20070;-47
2022/08/06 05:54:16;;;;;;;7.85;2.70;;;16.80;54.70;;;;;;4961297;28;20059;-47
2022/08/06 05:56:47;;;;;;;6.38;2.60;;;16.80;54.80;;;;;;4963960;28;20527;-44
2022/08/06 05:59:20;;;;;;;7.63;2.40;;;16.80;54.70;;;;;;4953141;28;20058;-48
2022/08/06 06:01:50;;;;;;;10.35;2.60;;;16.80;54.80;;;;;;4955122;28;20046;-48
2022/08/06 06:04:19;;;;;;;6.70;2.63;;;16.80;54.60;;;;;;4950499;28;20059;-47
2022/08/06 06:06:46;;;;;;;5.40;2.25;;;16.90;54.60;;;;;;4951507;28;20054;-44
2022/08/06 06:09:14;;;;;;;7.78;2.40;;;16.90;54.60;;;;;;4952382;28;20054;-48
2022/08/06 06:11:42;;;;;;;7.93;2.50;;;16.90;54.70;;;;;;4955262;28;20061;-47
2022/08/06 06:14:27;;;;;;;4.90;2.35;;;16.90;54.60;;;;;;4958183;28;20055;-48
2022/08/06 06:17:05;;;;;;;9.13;2.33;;;16.90;54.50;;;;;;4962871;28;20047;-46
2022/08/06 06:19:40;;;;;;;4.00;1.88;;;17.00;54.80;;;;;;4962281;28;20055;-49
2022/08/06 06:22:17;;;;;;;9.68;2.80;;;17.00;54.80;;;;;;4961005;28;20053;-47
2022/08/06 06:24:50;;;;;;;9.10;2.75;;;17.10;54.70;;;;;;4959665;28;20059;-46
2022/08/06 06:27:25;;;;;;;7.25;2.20;;;17.10;54.80;;;;;;4961017;28;20600;-45
2022/08/06 06:29:59;;;;;;;3.78;2.13;;;17.10;54.50;;;;;;4959915;28;20055;-44
2022/08/06 06:32:41;;;;;;;11.02;2.72;;;17.20;54.20;;;;;;4960300;28;20054;-43
2022/08/06 06:35:18;;;;;;;6.38;2.33;;;17.20;54.40;;;;;;4956352;28;20334;-49
2022/08/06 06:37:51;;;;;;;9.25;2.17;;;17.30;54.30;;;;;;4957625;28;20094;-45
2022/08/06 06:40:30;;;;;;;7.80;2.00;;;17.30;54.30;;;;;;4959953;28;20081;-45
2022/08/06 06:43:06;;;;;;;6.82;1.88;;;17.30;54.20;;;;;;4958857;28;20054;-45
2022/08/06 06:45:42;;;;;;;7.80;2.45;;;17.40;53.70;;;;;;4963461;28;20078;-44
2022/08/06 06:48:17;;;;;;;13.13;1.90;;;17.40;53.10;;;;;;4965684;28;20070;-47
2022/08/06 06:50:47;;;;;;;6.85;1.55;;;17.40;52.60;;;;;;4962382;28;20077;-45
2022/08/06 06:53:16;;;;;;;4.45;1.35;;;17.40;52.60;;;;;;4962837;28;20073;-47
2022/08/06 06:55:46;;;;;;;4.18;1.13;;;17.50;52.70;;;;;;4956716;28;20065;-45
2022/08/06 06:58:22;;;;;;;3.42;1.40;;;17.50;53.00;;;;;;4965388;28;20051;-47
2022/08/06 07:00:50;;;;;;;6.07;1.70;;;17.60;53.20;;;;;;4961502;28;20054;-46
2022/08/06 07:03:21;;;;;;;3.70;1.40;;;17.60;52.90;;;;;;4967277;28;20066;-44
2022/08/06 07:05:50;;;;;;;3.80;1.30;;;17.70;52.90;;;;;;4965393;28;20058;-46
2022/08/06 07:08:21;;;;;;;3.55;1.70;;;17.70;52.90;;;;;;4964545;28;20061;-44
2022/08/06 07:10:50;;;;;;;4.70;1.63;;;17.80;52.70;;;;;;4963156;28;20059;-45
2022/08/06 07:13:18;;;;;;;7.70;2.42;;;17.90;52.70;;;;;;4964612;28;20061;-50
2022/08/06 07:15:47;;;;;;;5.07;1.65;;;17.90;52.30;;;;;;4963869;28;20051;-45
2022/08/06 07:18:16;;;;;;;6.05;1.30;;;18.00;52.30;;;;;;4965430;28;20399;-50
2022/08/06 07:20:45;;;;;;;7.28;1.55;;;18.00;52.00;;;;;;4965083;28;20085;-44
2022/08/06 07:23:15;;;;;;;5.95;1.27;;;18.00;51.70;;;;;;4963791;28;20065;-45
2022/08/06 07:25:49;;;;;;;5.70;1.42;;;18.10;51.50;;;;;;4961335;28;20387;-45
2022/08/06 07:28:16;;;;;;;4.05;1.20;;;18.10;51.60;;;;;;4962771;28;20047;-47
2022/08/06 07:30:46;;;;;;;7.15;1.67;;;18.10;51.80;;;;;;4959976;28;20063;-44
2022/08/06 07:33:16;;;;;;;5.78;1.15;;;18.10;51.90;;;;;;4959301;28;20066;-48
2022/08/06 07:35:48;;;;;;;7.65;1.30;;;18.20;51.70;;;;;;4961010;28;20055;-42
2022/08/06 07:38:29;;;;;;;5.03;1.13;;;18.20;51.10;;;;;;4959843;28;20047;-44
2022/08/06 07:41:39;;;;;;;;;;;;;;;;;;;;;
2022/08/06 07:45:06;;;;;;;5.10;0.90;;;18.30;51.00;;;;;;4959579;28;20051;-48
2022/08/06 07:51:55;;;;;;;4.38;1.10;;;18.50;51.00;;;;;;4932419;28;20433;-52
2022/08/06 07:54:34;;;;;;;8.05;1.23;;;18.50;50.60;;;;;;4926064;28;20524;-43
2022/08/06 07:57:02;;;;;;;4.63;1.10;;;18.50;50.80;;;;;;4952638;28;20061;-46
2022/08/06 07:59:30;;;;;;;5.50;1.00;;;18.60;51.10;;;;;;4951150;28;20058;-46
2022/08/06 08:01:58;;;;;;;9.38;1.42;;;18.60;50.70;;;;;;4947936;28;20063;-44
2022/08/06 08:07:12;;;;;;;5.93;1.15;;;18.70;50.10;;;;;;4959702;28;20065;-49
2022/08/06 08:09:42;;;;;;;4.03;1.05;;;18.80;49.60;;;;;;4961676;28;20051;-48
2022/08/06 08:12:12;;;;;;;7.40;1.10;;;18.80;50.20;;;;;;4956554;28;20066;-48
2022/08/06 08:14:41;;;;;;;2.97;0.70;;;18.90;50.20;;;;;;4951229;28;20065;-48
2022/08/06 08:17:08;;;;;;;2.63;0.70;;;19.00;50.20;;;;;;4962675;28;20066;-44
2022/08/06 08:19:37;;;;;;;2.65;0.70;;;19.00;50.10;;;;;;4960836;28;20057;-46
2022/08/06 08:22:07;;;;;;;11.32;1.05;;;19.10;49.80;;;;;;4964373;28;20055;-46
2022/08/06 08:24:36;;;;;;;5.63;1.00;;;19.20;48.30;;;;;;4951649;28;20062;-44
2022/08/06 08:27:08;;;;;;;3.38;0.80;;;19.20;48.20;;;;;;4958708;28;20072;-44
2022/08/06 08:29:35;;;;;;;3.50;0.70;;;19.30;46.50;;;;;;4959278;28;20051;-51
2022/08/06 08:32:03;;;;;;;7.22;1.35;;;19.30;46.30;;;;;;4957862;28;20517;-43
2022/08/06 08:34:30;;;;;;;5.75;0.75;;;19.30;45.00;;;;;;4959295;28;20063;-45
2022/08/06 08:36:58;;;;;;;2.65;0.60;;;19.30;45.70;;;;;;4963076;28;20406;-46
2022/08/06 08:39:27;;;;;;;3.50;0.80;;;19.40;46.60;;;;;;4960215;28;20050;-45
2022/08/06 08:41:59;;;;;;;6.68;0.85;;;19.40;46.70;;;;;;4962106;28;20061;-44
2022/08/06 08:44:28;;;;;;;5.05;1.00;;;19.40;46.40;;;;;;4961170;28;20410;-48
2022/08/06 08:46:58;;;;;;;6.93;1.13;;;19.50;46.90;;;;;;4960196;28;20137;-48
2022/08/06 08:49:32;;;;;;;4.47;0.70;;;19.60;46.70;;;;;;4963683;28;20058;-44
2022/08/06 08:52:02;;;;;;;2.50;0.77;;;19.70;45.80;;;;;;4959420;28;20061;-47
2022/08/06 08:54:34;;;;;;;1.45;0.60;;;19.80;46.10;;;;;;4960880;28;20058;-45
2022/08/06 08:57:03;;;;;;;5.32;0.82;;;19.90;45.50;;;;;;4960112;28;20082;-46
2022/08/06 08:59:32;;;;;;;3.33;0.80;;;20.00;45.10;;;;;;4961715;28;20380;-47
2022/08/06 09:01:59;;;;;;;3.97;0.80;;;20.10;44.70;;;;;;4960841;28;20054;-48
2022/08/06 09:04:27;;;;;;;3.63;0.98;;;20.10;44.70;;;;;;4963705;28;20058;-46
2022/08/06 09:06:55;;;;;;;2.75;0.90;;;20.20;45.30;;;;;;4960494;28;20073;-44
2022/08/06 09:09:23;;;;;;;6.00;0.77;;;20.40;44.80;;;;;;4961090;28;20403;-48
2022/08/06 09:11:50;;;;;;;4.47;0.98;;;20.40;42.80;;;;;;4959487;28;20418;-47
2022/08/06 09:14:17;;;;;;;2.80;0.70;;;20.40;43.00;;;;;;4960307;28;20498;-47
2022/08/06 09:16:46;;;;;;;5.20;0.90;;;20.40;42.90;;;;;;4960566;28;20054;-46
2022/08/06 09:19:14;;;;;;;4.68;0.95;;;20.40;43.40;;;;;;4961304;28;20054;-49
2022/08/06 09:21:41;;;;;;;2.85;0.60;;;20.40;43.20;;;;;;4960605;28;20055;-45
2022/08/06 09:24:09;;;;;;;2.95;0.55;;;20.40;43.40;;;;;;4960581;28;20077;-49
2022/08/06 09:26:36;;;;;;;4.22;0.80;;;20.40;43.70;;;;;;4960087;28;20058;-44
2022/08/06 09:29:20;;;;;;;2.40;0.50;;;20.40;43.50;;;;;;4955927;28;20053;-47
2022/08/06 09:31:48;;;;;;;1.08;0.50;;;20.40;43.60;;;;;;4954002;28;20055;-46
2022/08/06 09:34:16;;;;;;;3.60;0.68;;;20.50;44.40;;;;;;4960267;28;20061;-47
2022/08/06 09:36:44;;;;;;;2.85;0.88;;;20.50;43.70;;;;;;4962451;28;20054;-45
2022/08/06 09:39:11;;;;;;;1.95;0.50;;;20.50;43.40;;;;;;4959764;28;20055;-47
2022/08/06 09:41:46;;;;;;;5.63;1.15;;;20.50;43.30;;;;;;4957288;28;20622;-45
2022/08/06 09:44:14;;;;;;;3.22;0.75;;;20.50;42.70;;;;;;4958306;28;20510;-47
2022/08/06 09:46:43;;;;;;;1.75;0.40;;;20.60;43.50;;;;;;4957793;28;20062;-45
2022/08/06 09:49:14;;;;;;;3.65;0.60;;;20.60;43.60;;;;;;4959987;28;21484;-45
2022/08/06 09:51:42;;;;;;;3.30;0.75;;;20.60;43.70;;;;;;4959126;28;20063;-46
2022/08/06 09:54:15;;;;;;;7.40;0.65;;;20.80;43.80;;;;;;4960289;28;20058;-50
2022/08/06 09:56:43;;;;;;;1.13;0.50;;;20.80;41.80;;;;;;4961855;28;20065;-49
2022/08/06 09:59:13;;;;;;;2.17;0.80;;;20.90;41.90;;;;;;4951330;28;20053;-53
2022/08/06 10:01:42;;;;;;;1.80;0.60;;;21.00;41.80;;;;;;4959530;28;20058;-52
2022/08/06 10:04:14;;;;;;;3.22;0.60;;;21.00;41.80;;;;;;4961733;28;20065;-46
2022/08/06 10:06:52;;;;;;;2.00;0.60;;;21.10;42.50;;;;;;4959743;28;20054;-45
2022/08/06 10:09:20;;;;;;;4.65;0.80;;;21.10;41.90;;;;;;4941094;28;20051;-51
2022/08/06 10:11:48;;;;;;;5.30;0.80;;;21.20;41.20;;;;;;4953985;28;20061;-49
2022/08/06 10:14:23;;;;;;;2.38;0.60;;;21.20;41.60;;;;;;4964281;28;20066;-46
2022/08/06 10:17:07;;;;;;;4.30;0.80;;;21.30;41.10;;;;;;4964185;28;20062;-50
2022/08/06 10:19:36;;;;;;;2.55;0.60;;;21.30;40.70;;;;;;4958448;28;20521;-51
2022/08/06 10:22:05;;;;;;;2.10;0.65;;;21.30;40.60;;;;;;4963980;28;20073;-44
2022/08/06 10:24:33;;;;;;;3.10;0.60;;;21.20;40.50;;;;;;4954062;28;20062;-52
2022/08/06 10:27:00;;;;;;;1.83;0.77;;;21.20;40.50;;;;;;4961740;28;20442;-45
2022/08/06 10:29:28;;;;;;;4.90;0.70;;;21.20;40.40;;;;;;4964231;28;20058;-46
2022/08/06 10:31:57;;;;;;;1.90;0.63;;;21.10;40.00;;;;;;4965055;28;20065;-46
2022/08/06 10:34:27;;;;;;;2.28;0.63;;;21.10;40.50;;;;;;4964590;28;20065;-48
2022/08/06 10:36:59;;;;;;;1.90;0.57;;;21.10;41.00;;;;;;4965845;28;20529;-48
2022/08/06 10:39:29;;;;;;;5.68;0.60;;;21.20;40.50;;;;;;4966576;28;20055;-45
2022/08/06 10:41:57;;;;;;;2.83;0.50;;;21.20;39.90;;;;;;4967049;28;20510;-43
2022/08/06 10:44:25;;;;;;;3.90;0.57;;;21.20;39.40;;;;;;4964527;28;20082;-46
2022/08/06 10:46:52;;;;;;;2.63;0.63;;;21.30;40.10;;;;;;4962908;28;20521;-43
2022/08/06 10:49:21;;;;;;;2.58;0.47;;;21.30;40.50;;;;;;4967227;28;20065;-43
2022/08/06 10:51:50;;;;;;;3.55;0.80;;;21.40;39.90;;;;;;4965163;28;20057;-52
2022/08/06 10:54:19;;;;;;;1.23;0.40;;;21.50;39.40;;;;;;4966395;28;20058;-47
2022/08/06 10:56:46;;;;;;;3.15;0.55;;;21.50;38.90;;;;;;4965467;28;20611;-45
2022/08/06 10:59:14;;;;;;;5.90;0.40;;;21.60;38.90;;;;;;4965012;28;20059;-50
2022/08/06 11:01:47;;;;;;;2.60;0.50;;;21.60;39.20;;;;;;4963444;28;21325;-47
2022/08/06 11:04:27;;;;;;;1.67;0.50;;;21.60;38.30;;;;;;4965120;28;20050;-51
2022/08/06 11:07:10;;;;;;;1.50;0.40;;;21.60;37.80;;;;;;4965473;28;20454;-47
2022/08/06 11:09:58;;;;;;;0.75;0.38;;;21.70;38.60;;;;;;4965361;28;20077;-47
2022/08/06 11:12:39;;;;;;;2.38;0.38;;;21.70;39.20;;;;;;4966114;28;20061;-44
2022/08/06 11:15:07;;;;;;;4.45;0.57;;;21.70;39.00;;;;;;4964114;28;20499;-42
2022/08/06 11:17:46;;;;;;;2.20;0.40;;;21.80;39.40;;;;;;4966694;28;20051;-47
2022/08/06 11:20:37;;;;;;;4.10;0.60;;;21.90;38.90;;;;;;4961863;28;20490;-47
2022/08/06 11:23:05;;;;;;;2.38;0.50;;;21.90;38.90;;;;;;4964272;28;20065;-43
2022/08/06 11:25:42;;;;;;;1.50;0.50;;;22.00;37.80;;;;;;4965921;28;20403;-44
2022/08/06 11:28:12;;;;;;;1.23;0.30;;;22.10;37.80;;;;;;4963522;28;20523;-45
2022/08/06 11:30:42;;;;;;;3.92;0.40;;;22.20;37.90;;;;;;4965487;28;20057;-46
2022/08/06 11:33:10;;;;;;;2.72;0.68;;;22.20;37.50;;;;;;4964317;28;20051;-51
2022/08/06 11:35:55;;;;;;;2.15;0.40;;;22.30;36.30;;;;;;4966909;28;20054;-45
2022/08/06 11:39:03;;;;;;;5.93;0.50;;;22.40;36.40;;;;;;4963918;28;20069;-47
2022/08/06 11:41:33;;;;;;;2.90;0.50;;;22.40;34.80;;;;;;4957169;28;20066;-44
2022/08/06 11:44:07;;;;;;;3.67;0.50;;;22.40;35.60;;;;;;4964771;28;20058;-47
2022/08/06 11:46:34;;;;;;;;;;;22.50;36.40;;;;;;4965770;28;20058;-46
2022/08/06 11:49:22;;;;;;;0.88;0.25;;;22.50;36.80;;;;;;4965327;28;19922;-48
2022/08/06 11:51:52;;;;;;;0.77;0.20;;;22.60;36.40;;;;;;4961587;28;20494;-45
2022/08/06 11:54:22;;;;;;;4.28;0.50;;;22.60;36.80;;;;;;4965008;28;20051;-45
2022/08/06 11:57:23;;;;;;;1.02;0.32;;;22.60;35.20;;;;;;4965702;28;20077;-46
2022/08/06 12:00:11;;;;;;;5.03;0.65;;;22.70;35.00;;;;;;4964054;28;20533;-45
2022/08/06 12:02:59;;;;;;;5.65;0.70;;;22.70;34.50;;;;;;4965987;28;20054;-45
2022/08/06 12:05:41;;;;;;;0.35;0.25;;;22.70;34.20;;;;;;4951079;28;20054;-45
2022/08/06 12:08:24;;;;;;;2.95;0.57;;;22.70;35.10;;;;;;4962464;28;20058;-44
2022/08/06 12:11:40;;;;;;;2.00;0.40;;;22.80;34.60;;;;;;4955486;28;20509;-42
2022/08/06 12:14:41;;;;;;;1.63;0.40;;;22.80;35.00;;;;;;4957676;28;20430;-49
2022/08/06 12:17:12;;;;;;;2.40;0.50;;;22.90;33.30;;;;;;4963524;28;20057;-49
2022/08/06 12:19:44;;;;;;;2.95;0.60;;;23.00;33.70;;;;;;4961468;28;20055;-52
2022/08/06 12:22:13;;;;;;;2.63;0.50;;;23.00;33.40;;;;;;4964359;28;20054;-49
2022/08/06 12:24:43;;;;;;;0.68;0.30;;;23.10;32.80;;;;;;4959942;28;20070;-54
2022/08/06 12:27:12;;;;;;;1.00;0.40;;;23.10;33.00;;;;;;4955666;28;20082;-47
2022/08/06 12:29:41;;;;;;;1.17;0.20;;;23.10;32.90;;;;;;4950851;28;20054;-48
2022/08/06 12:32:21;;;;;;;3.03;0.60;;;23.20;32.70;;;;;;4955395;28;20055;-49
2022/08/06 12:34:49;;;;;;;1.67;0.50;;;23.20;32.40;;;;;;4952511;28;20065;-54
2022/08/06 12:37:17;;;;;;;3.05;0.52;;;23.20;33.40;;;;;;4952725;28;20059;-44
2022/08/06 12:42:30;;;;;;;1.83;0.55;;;23.30;32.60;;;;;;4957152;28;20070;-47
2022/08/06 12:44:59;;;;;;;2.00;0.40;;;23.30;32.50;;;;;;4950158;28;20061;-45
2022/08/06 12:47:26;;;;;;;1.83;0.52;;;23.30;32.40;;;;;;4953639;28;20055;-49
2022/08/06 12:49:54;;;;;;;3.47;0.40;;;23.30;33.00;;;;;;4952406;28;20059;-49
2022/08/06 12:52:22;;;;;;;1.55;0.30;;;23.20;31.90;;;;;;4950455;28;20055;-45
2022/08/06 12:54:50;;;;;;;0.50;0.32;;;23.30;33.10;;;;;;4950581;28;20063;-46
2022/08/06 12:57:21;;;;;;;2.38;0.40;;;23.30;33.40;;;;;;4950375;28;20055;-43
2022/08/06 12:59:49;;;;;;;1.88;0.50;;;23.30;32.80;;;;;;4949243;28;20058;-48
2022/08/06 13:02:20;;;;;;;4.40;0.50;;;23.40;32.60;;;;;;4949077;28;20418;-44
2022/08/06 13:04:50;;;;;;;2.10;0.65;;;23.40;32.30;;;;;;4954595;28;20066;-46
2022/08/06 13:07:19;;;;;;;1.17;0.55;;;23.40;31.90;;;;;;4955665;28;20054;-49
2022/08/06 13:09:47;;;;;;;2.20;0.50;;;23.30;32.30;;;;;;4951697;28;20066;-45
2022/08/06 13:12:16;;;;;;;2.10;0.40;;;23.30;32.40;;;;;;4950061;28;20058;-45
2022/08/06 13:14:49;;;;;;;2.47;0.40;;;23.30;31.60;;;;;;4951915;28;20051;-43
2022/08/06 13:17:18;;;;;;;3.40;0.65;;;23.30;31.90;;;;;;4951445;28;20058;-42
2022/08/06 13:19:53;;;;;;;1.90;0.50;;;23.40;32.80;;;;;;4950548;28;20715;-57